sensor_id;sensor_type;location;lat;lon;timestamp;P1;durP1;ratioP1;P2;durP2;ratioP2
68940;SDS011;55982;51.476;7.552;2023-06-14T00:00:39;11.52;;;7.03;;
68940;SDS011;55982;51.476;7.552;2023-06-14T00:03:38;9.63;;;6.80;;
68940;SDS011;55982;51.476;7.552;2023-06-14T00:06:04;9.73;;;7.40;;
68940;SDS011;55982;51.476;7.552;2023-06-14T00:08:30;12.82;;;6.90;;
68940;SDS011;55982;51.476;7.552;2023-06-14T00:10:55;12.63;;;7.10;;
68940;SDS011;55982;51.476;7.552;2023-06-14T00:13:21;8.23;;;6.75;;
68940;SDS011;55982;51.476;7.552;2023-06-14T00:15:46;9.70;;;6.85;;
68940;SDS011;55982;51.476;7.552;2023-06-14T00:18:12;9.13;;;6.28;;
68940;SDS011;55982;51.476;7.552;2023-06-14T00:20:40;10.68;;;7.38;;
68940;SDS011;55982;51.476;7.552;2023-06-14T00:23:06;10.60;;;7.00;;
68940;SDS011;55982;51.476;7.552;2023-06-14T00:25:32;8.65;;;6.72;;
68940;SDS011;55982;51.476;7.552;2023-06-14T00:27:58;10.25;;;6.75;;
68940;SDS011;55982;51.476;7.552;2023-06-14T00:30:24;10.60;;;6.53;;
68940;SDS011;55982;51.476;7.552;2023-06-14T00:32:50;12.40;;;7.30;;
68940;SDS011;55982;51.476;7.552;2023-06-14T00:35:16;9.98;;;6.63;;
68940;SDS011;55982;51.476;7.552;2023-06-14T00:37:42;10.90;;;6.43;;
68940;SDS011;55982;51.476;7.552;2023-06-14T00:40:07;9.55;;;6.55;;
68940;SDS011;55982;51.476;7.552;2023-06-14T00:42:33;12.20;;;7.03;;
68940;SDS011;55982;51.476;7.552;2023-06-14T00:44:59;12.48;;;6.45;;
68940;SDS011;55982;51.476;7.552;2023-06-14T00:47:25;8.25;;;6.10;;
68940;SDS011;55982;51.476;7.552;2023-06-14T00:49:52;9.57;;;5.68;;
68940;SDS011;55982;51.476;7.552;2023-06-14T00:52:18;9.07;;;6.00;;
68940;SDS011;55982;51.476;7.552;2023-06-14T00:54:45;10.60;;;6.15;;
68940;SDS011;55982;51.476;7.552;2023-06-14T00:57:11;12.25;;;6.82;;
68940;SDS011;55982;51.476;7.552;2023-06-14T00:59:38;9.23;;;6.28;;
68940;SDS011;55982;51.476;7.552;2023-06-14T01:02:07;10.23;;;6.15;;
68940;SDS011;55982;51.476;7.552;2023-06-14T01:04:33;9.25;;;6.40;;
68940;SDS011;55982;51.476;7.552;2023-06-14T01:07:02;8.77;;;6.55;;
68940;SDS011;55982;51.476;7.552;2023-06-14T01:09:48;9.98;;;6.68;;
68940;SDS011;55982;51.476;7.552;2023-06-14T01:14:54;9.65;;;6.45;;
68940;SDS011;55982;51.476;7.552;2023-06-14T01:17:22;11.07;;;7.25;;
68940;SDS011;55982;51.476;7.552;2023-06-14T01:19:48;10.02;;;7.25;;
68940;SDS011;55982;51.476;7.552;2023-06-14T01:22:14;8.55;;;6.35;;
68940;SDS011;55982;51.476;7.552;2023-06-14T01:24:39;11.18;;;7.10;;
68940;SDS011;55982;51.476;7.552;2023-06-14T01:27:09;10.82;;;7.15;;
68940;SDS011;55982;51.476;7.552;2023-06-14T01:29:37;9.77;;;6.95;;
68940;SDS011;55982;51.476;7.552;2023-06-14T01:32:03;8.95;;;6.80;;
68940;SDS011;55982;51.476;7.552;2023-06-14T01:34:29;9.90;;;6.80;;
68940;SDS011;55982;51.476;7.552;2023-06-14T01:36:58;9.63;;;6.72;;
68940;SDS011;55982;51.476;7.552;2023-06-14T01:39:26;9.98;;;6.70;;
68940;SDS011;55982;51.476;7.552;2023-06-14T01:41:53;10.45;;;6.82;;
68940;SDS011;55982;51.476;7.552;2023-06-14T01:44:21;11.32;;;6.82;;
68940;SDS011;55982;51.476;7.552;2023-06-14T01:46:48;9.00;;;6.65;;
68940;SDS011;55982;51.476;7.552;2023-06-14T01:49:14;10.20;;;6.20;;
68940;SDS011;55982;51.476;7.552;2023-06-14T01:51:40;7.90;;;6.07;;
68940;SDS011;55982;51.476;7.552;2023-06-14T01:54:05;10.63;;;6.32;;
68940;SDS011;55982;51.476;7.552;2023-06-14T01:56:31;12.48;;;6.13;;
68940;SDS011;55982;51.476;7.552;2023-06-14T01:58:59;7.53;;;6.00;;
68940;SDS011;55982;51.476;7.552;2023-06-14T02:01:25;11.23;;;6.72;;
68940;SDS011;55982;51.476;7.552;2023-06-14T02:03:51;9.05;;;6.15;;
68940;SDS011;55982;51.476;7.552;2023-06-14T02:06:18;8.52;;;6.53;;
68940;SDS011;55982;51.476;7.552;2023-06-14T02:08:46;9.35;;;6.00;;
68940;SDS011;55982;51.476;7.552;2023-06-14T02:11:12;12.10;;;6.68;;
68940;SDS011;55982;51.476;7.552;2023-06-14T02:13:38;12.27;;;6.10;;
68940;SDS011;55982;51.476;7.552;2023-06-14T02:16:04;9.30;;;6.40;;
68940;SDS011;55982;51.476;7.552;2023-06-14T02:18:35;10.85;;;5.97;;
68940;SDS011;55982;51.476;7.552;2023-06-14T02:21:01;9.55;;;5.90;;
68940;SDS011;55982;51.476;7.552;2023-06-14T02:23:27;9.30;;;5.85;;
68940;SDS011;55982;51.476;7.552;2023-06-14T02:25:53;9.52;;;5.88;;
68940;SDS011;55982;51.476;7.552;2023-06-14T02:28:18;9.80;;;5.60;;
68940;SDS011;55982;51.476;7.552;2023-06-14T02:30:44;7.70;;;5.45;;
68940;SDS011;55982;51.476;7.552;2023-06-14T02:33:09;8.85;;;6.18;;
68940;SDS011;55982;51.476;7.552;2023-06-14T02:35:40;11.13;;;6.05;;
68940;SDS011;55982;51.476;7.552;2023-06-14T02:38:06;9.70;;;5.70;;
68940;SDS011;55982;51.476;7.552;2023-06-14T02:40:34;9.80;;;5.80;;
68940;SDS011;55982;51.476;7.552;2023-06-14T02:43:00;9.35;;;5.38;;
68940;SDS011;55982;51.476;7.552;2023-06-14T02:45:29;7.53;;;5.30;;
68940;SDS011;55982;51.476;7.552;2023-06-14T02:47:54;11.57;;;5.45;;
68940;SDS011;55982;51.476;7.552;2023-06-14T02:50:20;10.93;;;5.57;;
68940;SDS011;55982;51.476;7.552;2023-06-14T02:52:49;6.63;;;5.15;;
68940;SDS011;55982;51.476;7.552;2023-06-14T02:55:14;7.97;;;5.15;;
68940;SDS011;55982;51.476;7.552;2023-06-14T02:57:43;10.55;;;5.13;;
68940;SDS011;55982;51.476;7.552;2023-06-14T03:00:09;10.10;;;5.85;;
68940;SDS011;55982;51.476;7.552;2023-06-14T03:02:38;7.75;;;5.15;;
68940;SDS011;55982;51.476;7.552;2023-06-14T03:05:04;12.85;;;5.13;;
68940;SDS011;55982;51.476;7.552;2023-06-14T03:07:32;11.35;;;5.65;;
68940;SDS011;55982;51.476;7.552;2023-06-14T03:09:57;11.15;;;5.03;;
68940;SDS011;55982;51.476;7.552;2023-06-14T03:12:26;10.52;;;5.10;;
68940;SDS011;55982;51.476;7.552;2023-06-14T03:14:52;11.20;;;5.63;;
68940;SDS011;55982;51.476;7.552;2023-06-14T03:17:18;10.65;;;5.30;;
68940;SDS011;55982;51.476;7.552;2023-06-14T03:19:47;9.05;;;5.13;;
68940;SDS011;55982;51.476;7.552;2023-06-14T03:22:16;10.43;;;5.20;;
68940;SDS011;55982;51.476;7.552;2023-06-14T03:24:41;10.80;;;4.97;;
68940;SDS011;55982;51.476;7.552;2023-06-14T03:27:10;7.45;;;5.28;;
68940;SDS011;55982;51.476;7.552;2023-06-14T03:29:35;7.07;;;4.93;;
68940;SDS011;55982;51.476;7.552;2023-06-14T03:32:01;8.80;;;5.00;;
68940;SDS011;55982;51.476;7.552;2023-06-14T03:34:28;8.73;;;5.15;;
68940;SDS011;55982;51.476;7.552;2023-06-14T03:36:53;6.82;;;4.45;;
68940;SDS011;55982;51.476;7.552;2023-06-14T03:39:19;7.47;;;4.78;;
68940;SDS011;55982;51.476;7.552;2023-06-14T03:41:44;8.25;;;4.55;;
68940;SDS011;55982;51.476;7.552;2023-06-14T03:44:10;10.13;;;4.88;;
68940;SDS011;55982;51.476;7.552;2023-06-14T03:46:35;9.73;;;4.85;;
68940;SDS011;55982;51.476;7.552;2023-06-14T03:49:01;7.57;;;4.80;;
68940;SDS011;55982;51.476;7.552;2023-06-14T03:51:28;6.90;;;4.20;;
68940;SDS011;55982;51.476;7.552;2023-06-14T03:53:54;7.50;;;4.82;;
68940;SDS011;55982;51.476;7.552;2023-06-14T03:56:20;8.70;;;4.97;;
68940;SDS011;55982;51.476;7.552;2023-06-14T03:58:46;5.85;;;4.07;;
68940;SDS011;55982;51.476;7.552;2023-06-14T04:01:11;8.10;;;4.95;;
68940;SDS011;55982;51.476;7.552;2023-06-14T04:03:37;8.40;;;5.25;;
68940;SDS011;55982;51.476;7.552;2023-06-14T04:06:03;8.65;;;5.32;;
68940;SDS011;55982;51.476;7.552;2023-06-14T04:08:30;6.22;;;4.65;;
68940;SDS011;55982;51.476;7.552;2023-06-14T04:10:55;8.25;;;5.18;;
68940;SDS011;55982;51.476;7.552;2023-06-14T04:13:21;5.85;;;4.78;;
68940;SDS011;55982;51.476;7.552;2023-06-14T04:15:46;7.60;;;4.63;;
68940;SDS011;55982;51.476;7.552;2023-06-14T04:18:12;7.82;;;4.85;;
68940;SDS011;55982;51.476;7.552;2023-06-14T04:20:38;6.75;;;4.40;;
68940;SDS011;55982;51.476;7.552;2023-06-14T04:23:15;12.75;;;4.28;;
68940;SDS011;55982;51.476;7.552;2023-06-14T04:25:43;9.25;;;4.53;;
68940;SDS011;55982;51.476;7.552;2023-06-14T04:28:13;9.68;;;4.60;;
68940;SDS011;55982;51.476;7.552;2023-06-14T04:30:41;10.13;;;4.35;;
68940;SDS011;55982;51.476;7.552;2023-06-14T04:33:06;8.63;;;4.43;;
68940;SDS011;55982;51.476;7.552;2023-06-14T04:35:32;6.30;;;4.40;;
68940;SDS011;55982;51.476;7.552;2023-06-14T04:37:58;6.50;;;4.03;;
68940;SDS011;55982;51.476;7.552;2023-06-14T04:40:24;6.57;;;4.50;;
68940;SDS011;55982;51.476;7.552;2023-06-14T04:42:50;7.80;;;4.20;;
68940;SDS011;55982;51.476;7.552;2023-06-14T04:45:16;8.00;;;4.90;;
68940;SDS011;55982;51.476;7.552;2023-06-14T04:47:41;9.13;;;4.82;;
68940;SDS011;55982;51.476;7.552;2023-06-14T04:50:11;8.48;;;4.30;;
68940;SDS011;55982;51.476;7.552;2023-06-14T04:52:38;9.23;;;4.68;;
68940;SDS011;55982;51.476;7.552;2023-06-14T04:55:03;5.22;;;4.10;;
68940;SDS011;55982;51.476;7.552;2023-06-14T04:57:30;8.07;;;4.60;;
68940;SDS011;55982;51.476;7.552;2023-06-14T04:59:56;11.18;;;5.22;;
68940;SDS011;55982;51.476;7.552;2023-06-14T05:02:22;8.38;;;4.75;;
68940;SDS011;55982;51.476;7.552;2023-06-14T05:04:49;8.00;;;4.40;;
68940;SDS011;55982;51.476;7.552;2023-06-14T05:07:15;7.82;;;4.20;;
68940;SDS011;55982;51.476;7.552;2023-06-14T05:09:45;6.07;;;4.72;;
68940;SDS011;55982;51.476;7.552;2023-06-14T05:12:11;11.55;;;4.30;;
68940;SDS011;55982;51.476;7.552;2023-06-14T05:14:36;6.60;;;4.55;;
68940;SDS011;55982;51.476;7.552;2023-06-14T05:17:05;7.95;;;5.07;;
68940;SDS011;55982;51.476;7.552;2023-06-14T05:19:31;9.30;;;4.63;;
68940;SDS011;55982;51.476;7.552;2023-06-14T05:21:57;5.13;;;4.30;;
68940;SDS011;55982;51.476;7.552;2023-06-14T05:24:23;7.82;;;4.22;;
68940;SDS011;55982;51.476;7.552;2023-06-14T05:26:53;6.60;;;3.85;;
68940;SDS011;55982;51.476;7.552;2023-06-14T05:29:18;15.68;;;4.43;;
68940;SDS011;55982;51.476;7.552;2023-06-14T05:31:44;10.52;;;4.20;;
68940;SDS011;55982;51.476;7.552;2023-06-14T05:34:09;5.47;;;4.00;;
68940;SDS011;55982;51.476;7.552;2023-06-14T05:36:35;6.13;;;4.35;;
68940;SDS011;55982;51.476;7.552;2023-06-14T05:39:02;7.40;;;4.05;;
68940;SDS011;55982;51.476;7.552;2023-06-14T05:41:28;5.00;;;4.00;;
68940;SDS011;55982;51.476;7.552;2023-06-14T05:43:54;10.13;;;4.25;;
68940;SDS011;55982;51.476;7.552;2023-06-14T05:46:21;6.65;;;3.95;;
68940;SDS011;55982;51.476;7.552;2023-06-14T05:48:53;8.23;;;3.88;;
68940;SDS011;55982;51.476;7.552;2023-06-14T05:51:20;7.97;;;4.15;;
68940;SDS011;55982;51.476;7.552;2023-06-14T05:53:46;7.03;;;3.85;;
68940;SDS011;55982;51.476;7.552;2023-06-14T05:56:12;4.82;;;3.95;;
68940;SDS011;55982;51.476;7.552;2023-06-14T05:58:37;9.52;;;3.83;;
68940;SDS011;55982;51.476;7.552;2023-06-14T06:01:03;5.88;;;4.18;;
68940;SDS011;55982;51.476;7.552;2023-06-14T06:03:28;4.88;;;3.90;;
68940;SDS011;55982;51.476;7.552;2023-06-14T06:05:58;8.15;;;3.40;;
68940;SDS011;55982;51.476;7.552;2023-06-14T06:08:24;7.72;;;3.70;;
68940;SDS011;55982;51.476;7.552;2023-06-14T06:10:49;5.13;;;3.58;;
68940;SDS011;55982;51.476;7.552;2023-06-14T06:13:15;8.60;;;4.45;;
68940;SDS011;55982;51.476;7.552;2023-06-14T06:15:41;5.85;;;3.25;;
68940;SDS011;55982;51.476;7.552;2023-06-14T06:18:06;8.00;;;4.38;;
68940;SDS011;55982;51.476;7.552;2023-06-14T06:20:31;3.47;;;3.10;;
68940;SDS011;55982;51.476;7.552;2023-06-14T06:23:00;8.45;;;3.70;;
68940;SDS011;55982;51.476;7.552;2023-06-14T06:25:26;7.00;;;3.78;;
68940;SDS011;55982;51.476;7.552;2023-06-14T06:27:52;6.47;;;3.88;;
68940;SDS011;55982;51.476;7.552;2023-06-14T06:30:18;9.40;;;3.80;;
68940;SDS011;55982;51.476;7.552;2023-06-14T06:32:44;5.85;;;3.55;;
68940;SDS011;55982;51.476;7.552;2023-06-14T06:35:10;4.93;;;3.72;;
68940;SDS011;55982;51.476;7.552;2023-06-14T06:37:36;8.38;;;3.50;;
68940;SDS011;55982;51.476;7.552;2023-06-14T06:40:02;8.30;;;3.47;;
68940;SDS011;55982;51.476;7.552;2023-06-14T06:42:30;5.90;;;3.47;;
68940;SDS011;55982;51.476;7.552;2023-06-14T06:44:56;7.28;;;3.70;;
68940;SDS011;55982;51.476;7.552;2023-06-14T06:47:22;6.22;;;3.83;;
68940;SDS011;55982;51.476;7.552;2023-06-14T06:49:47;6.45;;;3.67;;
68940;SDS011;55982;51.476;7.552;2023-06-14T06:52:13;6.90;;;3.58;;
68940;SDS011;55982;51.476;7.552;2023-06-14T06:54:38;6.00;;;3.33;;
68940;SDS011;55982;51.476;7.552;2023-06-14T06:57:04;8.43;;;3.78;;
68940;SDS011;55982;51.476;7.552;2023-06-14T06:59:31;4.55;;;3.35;;
68940;SDS011;55982;51.476;7.552;2023-06-14T07:01:56;6.00;;;3.28;;
68940;SDS011;55982;51.476;7.552;2023-06-14T07:04:21;6.55;;;3.50;;
68940;SDS011;55982;51.476;7.552;2023-06-14T07:06:47;7.82;;;3.60;;
68940;SDS011;55982;51.476;7.552;2023-06-14T07:09:12;5.32;;;3.22;;
68940;SDS011;55982;51.476;7.552;2023-06-14T07:11:39;5.32;;;3.10;;
68940;SDS011;55982;51.476;7.552;2023-06-14T07:14:05;5.70;;;3.20;;
68940;SDS011;55982;51.476;7.552;2023-06-14T07:16:31;5.13;;;2.90;;
68940;SDS011;55982;51.476;7.552;2023-06-14T07:18:56;5.13;;;2.85;;
68940;SDS011;55982;51.476;7.552;2023-06-14T07:21:22;4.07;;;3.35;;
68940;SDS011;55982;51.476;7.552;2023-06-14T07:23:47;4.82;;;3.22;;
68940;SDS011;55982;51.476;7.552;2023-06-14T07:26:12;7.13;;;3.00;;
68940;SDS011;55982;51.476;7.552;2023-06-14T07:28:38;4.38;;;2.97;;
68940;SDS011;55982;51.476;7.552;2023-06-14T07:31:03;6.07;;;3.13;;
68940;SDS011;55982;51.476;7.552;2023-06-14T07:33:28;3.78;;;2.55;;
68940;SDS011;55982;51.476;7.552;2023-06-14T07:35:54;4.80;;;2.88;;
68940;SDS011;55982;51.476;7.552;2023-06-14T07:38:20;5.72;;;3.00;;
68940;SDS011;55982;51.476;7.552;2023-06-14T07:40:45;7.40;;;3.08;;
68940;SDS011;55982;51.476;7.552;2023-06-14T07:43:10;5.68;;;2.80;;
68940;SDS011;55982;51.476;7.552;2023-06-14T07:45:36;2.95;;;2.67;;
68940;SDS011;55982;51.476;7.552;2023-06-14T07:48:02;4.40;;;2.47;;
68940;SDS011;55982;51.476;7.552;2023-06-14T07:50:28;4.15;;;2.45;;
68940;SDS011;55982;51.476;7.552;2023-06-14T07:52:54;5.32;;;2.67;;
68940;SDS011;55982;51.476;7.552;2023-06-14T07:55:19;2.72;;;2.20;;
68940;SDS011;55982;51.476;7.552;2023-06-14T07:57:44;3.92;;;2.22;;
68940;SDS011;55982;51.476;7.552;2023-06-14T08:00:10;5.03;;;2.15;;
68940;SDS011;55982;51.476;7.552;2023-06-14T08:02:43;3.00;;;2.15;;
68940;SDS011;55982;51.476;7.552;2023-06-14T08:05:09;2.42;;;2.22;;
68940;SDS011;55982;51.476;7.552;2023-06-14T08:07:36;7.03;;;2.13;;
68940;SDS011;55982;51.476;7.552;2023-06-14T08:10:01;5.05;;;2.17;;
68940;SDS011;55982;51.476;7.552;2023-06-14T08:12:27;4.40;;;2.00;;
68940;SDS011;55982;51.476;7.552;2023-06-14T08:14:52;2.63;;;1.40;;
68940;SDS011;55982;51.476;7.552;2023-06-14T08:17:18;2.92;;;1.58;;
68940;SDS011;55982;51.476;7.552;2023-06-14T08:19:43;2.60;;;1.60;;
68940;SDS011;55982;51.476;7.552;2023-06-14T08:22:08;2.97;;;1.70;;
68940;SDS011;55982;51.476;7.552;2023-06-14T08:24:36;3.17;;;1.25;;
68940;SDS011;55982;51.476;7.552;2023-06-14T08:27:02;8.77;;;1.75;;
68940;SDS011;55982;51.476;7.552;2023-06-14T08:29:27;1.52;;;1.30;;
68940;SDS011;55982;51.476;7.552;2023-06-14T08:31:54;1.20;;;1.10;;
68940;SDS011;55982;51.476;7.552;2023-06-14T08:34:20;4.50;;;1.40;;
68940;SDS011;55982;51.476;7.552;2023-06-14T08:36:45;2.58;;;1.52;;
68940;SDS011;55982;51.476;7.552;2023-06-14T08:39:11;1.80;;;1.60;;
68940;SDS011;55982;51.476;7.552;2023-06-14T08:41:36;2.65;;;1.38;;
68940;SDS011;55982;51.476;7.552;2023-06-14T08:44:02;1.70;;;1.60;;
68940;SDS011;55982;51.476;7.552;2023-06-14T08:46:28;2.83;;;1.15;;
68940;SDS011;55982;51.476;7.552;2023-06-14T08:48:59;1.60;;;1.38;;
68940;SDS011;55982;51.476;7.552;2023-06-14T08:51:25;1.83;;;1.30;;
68940;SDS011;55982;51.476;7.552;2023-06-14T08:53:53;3.75;;;1.30;;
68940;SDS011;55982;51.476;7.552;2023-06-14T08:56:23;5.30;;;1.60;;
68940;SDS011;55982;51.476;7.552;2023-06-14T08:58:51;1.70;;;1.40;;
68940;SDS011;55982;51.476;7.552;2023-06-14T09:01:17;3.25;;;1.25;;
68940;SDS011;55982;51.476;7.552;2023-06-14T09:03:44;1.50;;;1.23;;
68940;SDS011;55982;51.476;7.552;2023-06-14T09:06:09;10.40;;;1.52;;
68940;SDS011;55982;51.476;7.552;2023-06-14T09:08:41;4.70;;;1.70;;
68940;SDS011;55982;51.476;7.552;2023-06-14T09:11:11;4.15;;;1.73;;
68940;SDS011;55982;51.476;7.552;2023-06-14T09:13:40;5.22;;;1.70;;
68940;SDS011;55982;51.476;7.552;2023-06-14T09:16:06;3.70;;;1.67;;
68940;SDS011;55982;51.476;7.552;2023-06-14T09:21:07;4.30;;;1.80;;
68940;SDS011;55982;51.476;7.552;2023-06-14T09:23:51;5.10;;;1.58;;
68940;SDS011;55982;51.476;7.552;2023-06-14T09:26:17;3.20;;;1.70;;
68940;SDS011;55982;51.476;7.552;2023-06-14T09:28:48;3.72;;;1.60;;
68940;SDS011;55982;51.476;7.552;2023-06-14T09:31:18;10.27;;;1.65;;
68940;SDS011;55982;51.476;7.552;2023-06-14T09:33:46;1.95;;;1.50;;
68940;SDS011;55982;51.476;7.552;2023-06-14T09:36:17;9.18;;;1.80;;
68940;SDS011;55982;51.476;7.552;2023-06-14T09:38:51;2.33;;;1.35;;
68940;SDS011;55982;51.476;7.552;2023-06-14T09:41:27;3.25;;;1.60;;
68940;SDS011;55982;51.476;7.552;2023-06-14T09:43:59;4.00;;;1.60;;
68940;SDS011;55982;51.476;7.552;2023-06-14T09:46:26;2.38;;;1.42;;
68940;SDS011;55982;51.476;7.552;2023-06-14T09:48:52;1.60;;;1.50;;
68940;SDS011;55982;51.476;7.552;2023-06-14T09:51:18;2.05;;;1.40;;
68940;SDS011;55982;51.476;7.552;2023-06-14T09:53:45;3.47;;;1.20;;
68940;SDS011;55982;51.476;7.552;2023-06-14T09:56:14;4.40;;;1.67;;
68940;SDS011;55982;51.476;7.552;2023-06-14T09:58:46;5.68;;;1.40;;
68940;SDS011;55982;51.476;7.552;2023-06-14T10:01:12;1.58;;;1.17;;
68940;SDS011;55982;51.476;7.552;2023-06-14T10:03:39;1.83;;;1.33;;
68940;SDS011;55982;51.476;7.552;2023-06-14T10:06:04;1.83;;;1.50;;
68940;SDS011;55982;51.476;7.552;2023-06-14T10:08:33;3.17;;;1.50;;
68940;SDS011;55982;51.476;7.552;2023-06-14T10:11:02;4.45;;;1.13;;
68940;SDS011;55982;51.476;7.552;2023-06-14T10:13:28;2.03;;;1.30;;
68940;SDS011;55982;51.476;7.552;2023-06-14T10:16:12;1.85;;;1.15;;
68940;SDS011;55982;51.476;7.552;2023-06-14T10:18:49;2.83;;;1.08;;
68940;SDS011;55982;51.476;7.552;2023-06-14T10:24:38;3.25;;;1.10;;
68940;SDS011;55982;51.476;7.552;2023-06-14T10:27:07;1.10;;;1.00;;
68940;SDS011;55982;51.476;7.552;2023-06-14T10:32:23;1.77;;;1.60;;
68940;SDS011;55982;51.476;7.552;2023-06-14T10:37:22;2.53;;;1.90;;
68940;SDS011;55982;51.476;7.552;2023-06-14T10:39:49;4.13;;;1.48;;
68940;SDS011;55982;51.476;7.552;2023-06-14T10:42:15;2.78;;;1.50;;
68940;SDS011;55982;51.476;7.552;2023-06-14T10:44:50;2.65;;;1.70;;
68940;SDS011;55982;51.476;7.552;2023-06-14T10:47:26;7.65;;;1.65;;
68940;SDS011;55982;51.476;7.552;2023-06-14T10:52:26;2.40;;;1.63;;
68940;SDS011;55982;51.476;7.552;2023-06-14T10:59:56;2.75;;;1.80;;
68940;SDS011;55982;51.476;7.552;2023-06-14T11:05:27;2.47;;;1.95;;
68940;SDS011;55982;51.476;7.552;2023-06-14T11:10:59;2.00;;;1.80;;
68940;SDS011;55982;51.476;7.552;2023-06-14T11:13:25;1.92;;;1.83;;
68940;SDS011;55982;51.476;7.552;2023-06-14T11:15:51;4.50;;;1.98;;
68940;SDS011;55982;51.476;7.552;2023-06-14T11:18:22;2.20;;;2.00;;
68940;SDS011;55982;51.476;7.552;2023-06-14T11:20:52;3.00;;;2.00;;
68940;SDS011;55982;51.476;7.552;2023-06-14T11:23:18;3.75;;;2.40;;
68940;SDS011;55982;51.476;7.552;2023-06-14T11:25:49;3.47;;;2.47;;
68940;SDS011;55982;51.476;7.552;2023-06-14T11:28:15;2.65;;;1.95;;
68940;SDS011;55982;51.476;7.552;2023-06-14T11:30:40;2.63;;;2.10;;
68940;SDS011;55982;51.476;7.552;2023-06-14T11:33:09;2.38;;;2.17;;
68940;SDS011;55982;51.476;7.552;2023-06-14T11:35:34;4.90;;;2.63;;
68940;SDS011;55982;51.476;7.552;2023-06-14T11:38:01;3.22;;;2.40;;
68940;SDS011;55982;51.476;7.552;2023-06-14T11:40:26;4.47;;;2.10;;
68940;SDS011;55982;51.476;7.552;2023-06-14T11:42:59;2.83;;;2.33;;
68940;SDS011;55982;51.476;7.552;2023-06-14T11:45:25;2.28;;;2.08;;
68940;SDS011;55982;51.476;7.552;2023-06-14T11:47:53;3.15;;;2.13;;
68940;SDS011;55982;51.476;7.552;2023-06-14T11:50:19;2.40;;;2.20;;
68940;SDS011;55982;51.476;7.552;2023-06-14T11:52:45;3.22;;;2.10;;
68940;SDS011;55982;51.476;7.552;2023-06-14T11:55:17;3.70;;;2.13;;
68940;SDS011;55982;51.476;7.552;2023-06-14T11:57:42;3.47;;;2.08;;
68940;SDS011;55982;51.476;7.552;2023-06-14T12:00:08;4.70;;;2.40;;
68940;SDS011;55982;51.476;7.552;2023-06-14T12:02:37;2.95;;;2.08;;
68940;SDS011;55982;51.476;7.552;2023-06-14T12:05:04;3.40;;;1.85;;
68940;SDS011;55982;51.476;7.552;2023-06-14T12:07:33;3.10;;;2.15;;
68940;SDS011;55982;51.476;7.552;2023-06-14T12:12:24;4.80;;;2.07;;
68940;SDS011;55982;51.476;7.552;2023-06-14T12:14:55;4.15;;;2.40;;
68940;SDS011;55982;51.476;7.552;2023-06-14T12:17:21;4.50;;;1.98;;
68940;SDS011;55982;51.476;7.552;2023-06-14T12:19:48;8.80;;;2.53;;
68940;SDS011;55982;51.476;7.552;2023-06-14T12:22:15;2.25;;;2.03;;
68940;SDS011;55982;51.476;7.552;2023-06-14T12:24:44;3.20;;;2.38;;
68940;SDS011;55982;51.476;7.552;2023-06-14T12:27:10;4.72;;;2.50;;
68940;SDS011;55982;51.476;7.552;2023-06-14T12:29:41;2.22;;;2.03;;
68940;SDS011;55982;51.476;7.552;2023-06-14T12:32:08;4.45;;;2.20;;
68940;SDS011;55982;51.476;7.552;2023-06-14T12:34:34;4.10;;;2.30;;
68940;SDS011;55982;51.476;7.552;2023-06-14T12:37:00;2.50;;;1.98;;
68940;SDS011;55982;51.476;7.552;2023-06-14T12:39:26;2.47;;;2.00;;
68940;SDS011;55982;51.476;7.552;2023-06-14T12:41:51;2.90;;;2.22;;
68940;SDS011;55982;51.476;7.552;2023-06-14T12:44:16;4.22;;;2.40;;
68940;SDS011;55982;51.476;7.552;2023-06-14T12:46:42;5.22;;;2.25;;
68940;SDS011;55982;51.476;7.552;2023-06-14T12:49:08;3.58;;;2.30;;
68940;SDS011;55982;51.476;7.552;2023-06-14T12:51:35;4.10;;;2.63;;
68940;SDS011;55982;51.476;7.552;2023-06-14T12:54:01;2.80;;;2.25;;
68940;SDS011;55982;51.476;7.552;2023-06-14T12:56:26;3.33;;;2.40;;
68940;SDS011;55982;51.476;7.552;2023-06-14T12:58:52;2.38;;;2.17;;
68940;SDS011;55982;51.476;7.552;2023-06-14T13:01:17;3.20;;;2.65;;
68940;SDS011;55982;51.476;7.552;2023-06-14T13:03:43;3.30;;;2.17;;
68940;SDS011;55982;51.476;7.552;2023-06-14T13:06:08;2.75;;;2.38;;
68940;SDS011;55982;51.476;7.552;2023-06-14T13:08:34;2.30;;;2.10;;
68940;SDS011;55982;51.476;7.552;2023-06-14T13:10:59;4.30;;;2.30;;
68940;SDS011;55982;51.476;7.552;2023-06-14T13:13:25;5.43;;;2.20;;
68940;SDS011;55982;51.476;7.552;2023-06-14T13:15:50;2.75;;;2.28;;
68940;SDS011;55982;51.476;7.552;2023-06-14T13:18:16;4.30;;;2.63;;
68940;SDS011;55982;51.476;7.552;2023-06-14T13:20:41;2.90;;;2.30;;
68940;SDS011;55982;51.476;7.552;2023-06-14T13:23:07;3.20;;;2.40;;
68940;SDS011;55982;51.476;7.552;2023-06-14T13:25:35;2.58;;;2.38;;
68940;SDS011;55982;51.476;7.552;2023-06-14T13:28:01;3.53;;;2.25;;
68940;SDS011;55982;51.476;7.552;2023-06-14T13:30:27;3.53;;;2.72;;
68940;SDS011;55982;51.476;7.552;2023-06-14T13:32:52;2.90;;;2.38;;
68940;SDS011;55982;51.476;7.552;2023-06-14T13:35:18;5.32;;;2.33;;
68940;SDS011;55982;51.476;7.552;2023-06-14T13:37:44;2.63;;;2.30;;
68940;SDS011;55982;51.476;7.552;2023-06-14T13:40:10;7.45;;;2.78;;
68940;SDS011;55982;51.476;7.552;2023-06-14T13:42:36;3.75;;;2.60;;
68940;SDS011;55982;51.476;7.552;2023-06-14T13:45:02;2.80;;;2.33;;
68940;SDS011;55982;51.476;7.552;2023-06-14T13:47:29;5.47;;;2.30;;
68940;SDS011;55982;51.476;7.552;2023-06-14T13:49:55;3.45;;;2.42;;
68940;SDS011;55982;51.476;7.552;2023-06-14T13:52:20;6.43;;;2.53;;
68940;SDS011;55982;51.476;7.552;2023-06-14T13:54:46;3.20;;;2.80;;
68940;SDS011;55982;51.476;7.552;2023-06-14T13:57:11;6.68;;;2.53;;
68940;SDS011;55982;51.476;7.552;2023-06-14T13:59:37;3.13;;;2.38;;
68940;SDS011;55982;51.476;7.552;2023-06-14T14:02:03;3.20;;;2.90;;
68940;SDS011;55982;51.476;7.552;2023-06-14T14:04:30;5.47;;;2.42;;
68940;SDS011;55982;51.476;7.552;2023-06-14T14:06:56;3.00;;;2.70;;
68940;SDS011;55982;51.476;7.552;2023-06-14T14:09:21;4.72;;;2.50;;
68940;SDS011;55982;51.476;7.552;2023-06-14T14:11:46;3.00;;;2.40;;
68940;SDS011;55982;51.476;7.552;2023-06-14T14:14:13;2.72;;;2.47;;
68940;SDS011;55982;51.476;7.552;2023-06-14T14:16:39;4.43;;;2.75;;
68940;SDS011;55982;51.476;7.552;2023-06-14T14:19:04;3.00;;;2.63;;
68940;SDS011;55982;51.476;7.552;2023-06-14T14:21:31;2.85;;;2.53;;
68940;SDS011;55982;51.476;7.552;2023-06-14T14:23:57;3.58;;;2.60;;
68940;SDS011;55982;51.476;7.552;2023-06-14T14:26:22;2.33;;;2.13;;
68940;SDS011;55982;51.476;7.552;2023-06-14T14:28:48;5.18;;;2.75;;
68940;SDS011;55982;51.476;7.552;2023-06-14T14:31:14;2.88;;;2.67;;
68940;SDS011;55982;51.476;7.552;2023-06-14T14:33:40;2.35;;;2.13;;
68940;SDS011;55982;51.476;7.552;2023-06-14T14:36:05;3.58;;;2.28;;
68940;SDS011;55982;51.476;7.552;2023-06-14T14:38:31;3.22;;;2.60;;
68940;SDS011;55982;51.476;7.552;2023-06-14T14:40:57;5.05;;;2.78;;
68940;SDS011;55982;51.476;7.552;2023-06-14T14:43:22;4.63;;;2.70;;
68940;SDS011;55982;51.476;7.552;2023-06-14T14:45:48;3.85;;;2.83;;
68940;SDS011;55982;51.476;7.552;2023-06-14T14:48:13;2.85;;;2.40;;
68940;SDS011;55982;51.476;7.552;2023-06-14T14:50:38;6.93;;;2.60;;
68940;SDS011;55982;51.476;7.552;2023-06-14T14:53:04;5.18;;;2.50;;
68940;SDS011;55982;51.476;7.552;2023-06-14T14:55:31;2.50;;;2.30;;
68940;SDS011;55982;51.476;7.552;2023-06-14T14:57:59;3.05;;;2.08;;
68940;SDS011;55982;51.476;7.552;2023-06-14T15:00:25;5.53;;;2.33;;
68940;SDS011;55982;51.476;7.552;2023-06-14T15:02:50;2.60;;;2.30;;
68940;SDS011;55982;51.476;7.552;2023-06-14T15:05:15;4.00;;;2.33;;
68940;SDS011;55982;51.476;7.552;2023-06-14T15:07:41;5.07;;;2.55;;
68940;SDS011;55982;51.476;7.552;2023-06-14T15:10:07;2.55;;;2.33;;
68940;SDS011;55982;51.476;7.552;2023-06-14T15:12:33;2.60;;;2.15;;